Time;durP1;ratioP1;P1;durP2;ratioP2;P2;SDS_P1;SDS_P2;PMS_P1;PMS_P2;Temp;Humidity;BMP_temperature;BMP_pressure;BME280_temperature;BME280_humidity;BME280_pressure;Samples;Min_cycle;Max_cycle;Signal;HPM_P1;HPM_P2
2023/11/20 00:00:31;;;;;;;8.75;1.50;;;;;;;;;;5029719;28;20473;-76
2023/11/20 00:02:56;;;;;;;7.03;1.80;;;;;;;;;;5023244;28;20107;-76
2023/11/20 00:05:21;;;;;;;14.00;2.22;;;;;;;;;;5028884;28;20026;-76
2023/11/20 00:07:47;;;;;;;8.98;1.70;;;;;;;;;;5027571;28;20041;-76
2023/11/20 00:10:12;;;;;;;10.50;2.33;;;;;;;;;;5028306;28;20407;-76
2023/11/20 00:12:38;;;;;;;11.45;1.75;;;;;;;;;;5029865;28;20030;-76
2023/11/20 00:15:03;;;;;;;12.15;2.50;;;;;;;;;;5022391;28;20057;-76
2023/11/20 00:17:28;;;;;;;9.75;2.00;;;;;;;;;;5028970;28;20026;-76
2023/11/20 00:19:54;;;;;;;8.32;1.95;;;;;;;;;;5029648;28;20021;-76
2023/11/20 00:22:19;;;;;;;14.93;1.67;;;;;;;;;;5025849;28;20030;-76
2023/11/20 00:24:44;;;;;;;7.68;1.25;;;;;;;;;;5027725;28;20033;-76
2023/11/20 00:27:09;;;;;;;12.05;2.88;;;;;;;;;;5021340;28;20034;-76
2023/11/20 00:29:35;;;;;;;12.02;2.10;;;;;;;;;;5025241;28;20057;-76
2023/11/20 00:32:00;;;;;;;10.70;1.75;;;;;;;;;;5030700;28;20032;-76
2023/11/20 00:34:25;;;;;;;12.07;1.65;;;;;;;;;;5040189;28;20065;-76
2023/11/20 00:36:50;;;;;;;12.05;1.45;;;;;;;;;;5033207;28;20383;-76
2023/11/20 00:39:16;;;;;;;15.57;2.45;;;;;;;;;;5033197;28;20045;-76
2023/11/20 00:41:41;;;;;;;9.88;1.80;;;;;;;;;;5028046;28;20022;-76
2023/11/20 00:44:06;;;;;;;12.45;1.95;;;;;;;;;;5039762;28;20080;-76
2023/11/20 00:46:32;;;;;;;11.38;2.15;;;;;;;;;;5032389;28;20079;-76
2023/11/20 00:48:57;;;;;;;10.63;2.17;;;;;;;;;;5031916;28;20033;-76
2023/11/20 00:51:22;;;;;;;14.10;2.35;;;;;;;;;;5029209;28;20034;-76
2023/11/20 00:53:49;;;;;;;10.93;1.95;;;;;;;;;;5032738;28;20029;-76
2023/11/20 00:56:18;;;;;;;12.63;1.73;;;;;;;;;;5031650;28;20402;-76
2023/11/20 00:58:43;;;;;;;9.75;1.55;;;;;;;;;;5030119;28;20572;-76
2023/11/20 01:01:09;;;;;;;12.95;2.28;;;;;;;;;;5030383;28;20037;-76
2023/11/20 01:03:34;;;;;;;11.00;1.77;;;;;;;;;;5040905;28;20025;-75
2023/11/20 01:06:04;;;;;;;13.25;1.98;;;;;;;;;;5028359;28;20037;-76
2023/11/20 01:08:29;;;;;;;8.68;1.70;;;;;;;;;;5040607;28;20646;-76
2023/11/20 01:10:54;;;;;;;9.38;1.40;;;;;;;;;;5030748;28;20120;-76
2023/11/20 01:13:20;;;;;;;8.10;1.52;;;;;;;;;;5031673;28;20087;-76
2023/11/20 01:15:45;;;;;;;8.20;1.77;;;;;;;;;;5032407;28;20112;-76
2023/11/20 01:18:10;;;;;;;8.73;1.65;;;;;;;;;;5030396;28;20033;-76
2023/11/20 01:20:35;;;;;;;11.75;1.90;;;;;;;;;;5032633;28;20057;-76
2023/11/20 01:23:00;;;;;;;8.45;1.70;;;;;;;;;;5030316;28;20124;-76
2023/11/20 01:25:26;;;;;;;11.68;1.98;;;;;;;;;;5025534;28;20509;-76
2023/11/20 01:27:51;;;;;;;8.52;1.73;;;;;;;;;;5032644;28;20477;-75
2023/11/20 01:30:16;;;;;;;6.97;1.50;;;;;;;;;;5030548;28;20029;-75
2023/11/20 01:32:42;;;;;;;9.02;1.50;;;;;;;;;;5031506;28;20305;-75
2023/11/20 01:35:08;;;;;;;12.93;2.67;;;;;;;;;;5037934;28;20816;-75
2023/11/20 01:37:34;;;;;;;11.73;1.92;;;;;;;;;;5026702;28;20464;-76
2023/11/20 01:39:59;;;;;;;9.20;1.50;;;;;;;;;;5031901;28;20024;-75
2023/11/20 01:42:24;;;;;;;7.82;1.40;;;;;;;;;;5031375;28;20026;-75
2023/11/20 01:44:49;;;;;;;10.27;1.83;;;;;;;;;;5031919;28;20493;-75
2023/11/20 01:47:15;;;;;;;10.90;1.95;;;;;;;;;;5034336;28;20033;-76
2023/11/20 01:49:42;;;;;;;9.63;1.50;;;;;;;;;;5032114;28;20022;-76
2023/11/20 01:52:09;;;;;;;13.98;2.35;;;;;;;;;;5030392;28;20089;-75
2023/11/20 01:54:35;;;;;;;8.93;2.25;;;;;;;;;;5029263;28;20025;-75
2023/11/20 01:57:01;;;;;;;15.15;2.40;;;;;;;;;;5027798;28;20057;-75
2023/11/20 01:59:27;;;;;;;9.18;1.88;;;;;;;;;;5030836;28;20048;-76
2023/11/20 02:01:53;;;;;;;15.50;2.15;;;;;;;;;;5037150;28;20029;-75
2023/11/20 02:04:21;;;;;;;10.23;1.30;;;;;;;;;;5029206;28;20417;-75
2023/11/20 02:06:48;;;;;;;9.88;1.35;;;;;;;;;;5030572;28;20121;-75
2023/11/20 02:09:13;;;;;;;9.93;1.83;;;;;;;;;;5030867;28;20120;-75
2023/11/20 02:11:38;;;;;;;7.85;1.42;;;;;;;;;;5031562;28;20545;-75
2023/11/20 02:14:04;;;;;;;10.95;1.88;;;;;;;;;;5030397;28;20048;-75
2023/11/20 02:16:30;;;;;;;9.30;2.28;;;;;;;;;;5026738;28;20049;-76
2023/11/20 02:18:55;;;;;;;8.80;1.75;;;;;;;;;;5029928;28;20021;-76
2023/11/20 02:21:21;;;;;;;6.50;1.67;;;;;;;;;;5030275;28;20482;-76
2023/11/20 02:23:46;;;;;;;9.02;2.33;;;;;;;;;;5031364;28;20029;-76
2023/11/20 02:26:20;;;;;;;10.27;1.65;;;;;;;;;;5028552;28;20455;-76
2023/11/20 02:28:52;;;;;;;7.03;1.38;;;;;;;;;;5028541;28;20038;-76
2023/11/20 02:31:18;;;;;;;8.63;1.52;;;;;;;;;;5023180;28;20038;-76
2023/11/20 02:33:43;;;;;;;8.45;1.63;;;;;;;;;;5025443;28;20025;-76
2023/11/20 02:36:09;;;;;;;11.52;1.20;;;;;;;;;;5024539;28;20056;-75
2023/11/20 02:38:36;;;;;;;13.95;2.05;;;;;;;;;;5037797;28;20051;-75
2023/11/20 02:41:01;;;;;;;5.68;1.30;;;;;;;;;;5036234;28;20030;-76
2023/11/20 02:43:27;;;;;;;7.03;1.33;;;;;;;;;;5034764;28;20037;-76
2023/11/20 02:45:53;;;;;;;9.15;1.45;;;;;;;;;;5029945;28;20022;-76
2023/11/20 02:48:18;;;;;;;10.30;1.52;;;;;;;;;;5021927;28;20487;-76
2023/11/20 02:50:43;;;;;;;7.50;1.98;;;;;;;;;;5030895;28;20025;-76
2023/11/20 02:53:09;;;;;;;11.98;2.10;;;;;;;;;;5028728;28;20034;-76
2023/11/20 02:55:34;;;;;;;7.13;1.52;;;;;;;;;;5039324;28;20032;-76
2023/11/20 02:58:00;;;;;;;8.40;1.85;;;;;;;;;;5028396;28;20033;-76
2023/11/20 03:00:26;;;;;;;8.50;1.42;;;;;;;;;;5031464;28;20109;-76
2023/11/20 03:02:51;;;;;;;6.53;1.75;;;;;;;;;;5023000;28;20028;-76
2023/11/20 03:05:17;;;;;;;8.25;1.60;;;;;;;;;;5029665;28;20033;-76
2023/11/20 03:07:42;;;;;;;9.07;1.55;;;;;;;;;;5030658;28;20401;-76
2023/11/20 03:10:08;;;;;;;7.45;1.30;;;;;;;;;;5034393;28;20080;-76
2023/11/20 03:12:33;;;;;;;8.88;1.48;;;;;;;;;;5037443;28;20017;-76
2023/11/20 03:14:59;;;;;;;8.05;1.30;;;;;;;;;;5028465;28;20033;-76
2023/11/20 03:17:24;;;;;;;9.38;1.38;;;;;;;;;;5030051;28;20064;-76
2023/11/20 03:19:49;;;;;;;10.88;1.98;;;;;;;;;;5030254;28;20485;-75
2023/11/20 03:22:14;;;;;;;6.85;1.70;;;;;;;;;;5034584;28;20555;-76
2023/11/20 03:24:40;;;;;;;7.45;2.22;;;;;;;;;;5030427;28;20478;-76
2023/11/20 03:27:06;;;;;;;10.00;1.30;;;;;;;;;;5023512;28;20029;-76
2023/11/20 03:29:31;;;;;;;10.27;1.63;;;;;;;;;;5030116;28;20088;-76
2023/11/20 03:31:56;;;;;;;7.75;1.30;;;;;;;;;;5027319;28;20399;-76
2023/11/20 03:34:22;;;;;;;6.00;1.05;;;;;;;;;;5040074;28;20029;-76
2023/11/20 03:36:47;;;;;;;7.43;1.10;;;;;;;;;;5029898;28;20041;-76
2023/11/20 03:39:12;;;;;;;7.10;0.98;;;;;;;;;;5031785;28;20038;-76
2023/11/20 03:41:37;;;;;;;5.18;0.95;;;;;;;;;;5029856;28;20099;-76
2023/11/20 03:44:03;;;;;;;8.45;1.90;;;;;;;;;;5029788;28;20035;-76
2023/11/20 03:46:28;;;;;;;6.55;1.25;;;;;;;;;;5029762;28;20041;-76
2023/11/20 03:48:53;;;;;;;7.43;1.58;;;;;;;;;;5030073;28;20137;-76
2023/11/20 03:51:18;;;;;;;6.05;1.20;;;;;;;;;;5025867;28;20034;-76
2023/11/20 03:53:44;;;;;;;7.90;1.67;;;;;;;;;;5029829;28;20036;-76
2023/11/20 03:56:10;;;;;;;8.57;1.15;;;;;;;;;;5029572;28;20068;-76
2023/11/20 03:58:35;;;;;;;10.02;1.85;;;;;;;;;;5038207;28;20030;-76
2023/11/20 04:01:02;;;;;;;8.38;2.10;;;;;;;;;;5030146;28;20397;-76
2023/11/20 04:03:27;;;;;;;7.88;1.48;;;;;;;;;;5028304;28;20103;-76
2023/11/20 04:05:52;;;;;;;5.95;1.73;;;;;;;;;;5029548;28;20545;-76
2023/11/20 04:08:18;;;;;;;12.15;1.67;;;;;;;;;;5023063;28;20033;-76
2023/11/20 04:10:43;;;;;;;5.85;1.08;;;;;;;;;;5026930;28;20620;-76
2023/11/20 04:13:09;;;;;;;4.55;1.08;;;;;;;;;;5024450;28;20076;-76
2023/11/20 04:15:34;;;;;;;5.90;1.30;;;;;;;;;;5028954;28;20026;-76
2023/11/20 04:18:01;;;;;;;3.35;0.80;;;;;;;;;;5025390;28;20079;-76
2023/11/20 04:20:26;;;;;;;11.90;1.50;;;;;;;;;;5032161;28;20034;-76
2023/11/20 04:22:52;;;;;;;23.23;3.05;;;;;;;;;;5024818;28;20021;-76
2023/11/20 04:25:18;;;;;;;5.40;1.25;;;;;;;;;;5028111;28;20026;-76
2023/11/20 04:27:44;;;;;;;8.63;1.90;;;;;;;;;;5029568;28;20032;-76
2023/11/20 04:30:09;;;;;;;8.60;1.50;;;;;;;;;;5028268;28;20018;-76
2023/11/20 04:32:34;;;;;;;12.07;1.50;;;;;;;;;;5026834;28;20497;-76
2023/11/20 04:35:00;;;;;;;7.82;1.17;;;;;;;;;;5025073;28;20026;-76
2023/11/20 04:37:25;;;;;;;5.90;1.13;;;;;;;;;;5022625;28;20068;-76
2023/11/20 04:39:52;;;;;;;8.38;1.25;;;;;;;;;;5023416;28;20406;-76
2023/11/20 04:42:17;;;;;;;8.70;1.33;;;;;;;;;;5026388;28;20036;-75
2023/11/20 04:44:42;;;;;;;6.47;1.10;;;;;;;;;;5028880;28;20025;-76
2023/11/20 04:47:08;;;;;;;7.18;1.80;;;;;;;;;;5027612;28;20029;-75
2023/11/20 04:49:33;;;;;;;8.23;1.23;;;;;;;;;;5027914;28;20033;-76
2023/11/20 04:51:59;;;;;;;9.18;1.73;;;;;;;;;;5022453;28;20504;-75
2023/11/20 04:54:24;;;;;;;7.53;1.40;;;;;;;;;;5025133;28;20038;-76
2023/11/20 04:56:49;;;;;;;5.88;1.45;;;;;;;;;;5028429;28;20021;-76
2023/11/20 04:59:14;;;;;;;7.38;1.25;;;;;;;;;;5028767;28;20030;-76
2023/11/20 05:01:40;;;;;;;4.97;1.15;;;;;;;;;;5026334;28;20052;-76
2023/11/20 05:04:06;;;;;;;5.80;1.15;;;;;;;;;;5024909;28;20026;-76
2023/11/20 05:06:31;;;;;;;6.07;1.10;;;;;;;;;;5027737;28;20041;-76
2023/11/20 05:08:59;;;;;;;6.45;1.20;;;;;;;;;;5022779;28;20505;-76
2023/11/20 05:11:25;;;;;;;4.95;1.15;;;;;;;;;;5028142;28;20033;-76
2023/11/20 05:13:50;;;;;;;4.10;1.08;;;;;;;;;;5029171;28;20183;-76
2023/11/20 05:16:15;;;;;;;6.53;1.20;;;;;;;;;;5028401;28;20515;-76
2023/11/20 05:18:40;;;;;;;4.88;0.98;;;;;;;;;;5028096;28;20136;-76
2023/11/20 05:21:06;;;;;;;6.07;1.30;;;;;;;;;;5024036;28;20034;-76
2023/11/20 05:23:31;;;;;;;14.80;3.15;;;;;;;;;;5028126;28;20049;-75
2023/11/20 05:25:56;;;;;;;5.88;2.03;;;;;;;;;;5032875;28;20118;-76
2023/11/20 05:28:22;;;;;;;8.80;2.30;;;;;;;;;;5030063;28;20407;-77
2023/11/20 05:30:47;;;;;;;7.68;1.90;;;;;;;;;;5029016;28;20494;-74
2023/11/20 05:33:12;;;;;;;5.47;0.93;;;;;;;;;;5025765;28;20563;-75
2023/11/20 05:35:38;;;;;;;4.15;0.80;;;;;;;;;;5032886;28;20039;-76
2023/11/20 05:38:04;;;;;;;8.55;1.25;;;;;;;;;;5032968;28;20152;-75
2023/11/20 05:40:29;;;;;;;6.63;1.13;;;;;;;;;;5029884;28;20105;-75
2023/11/20 05:42:54;;;;;;;4.50;0.85;;;;;;;;;;5031377;28;20037;-75
2023/11/20 05:45:19;;;;;;;8.50;0.88;;;;;;;;;;5030531;28;20421;-75
2023/11/20 05:47:45;;;;;;;4.20;0.93;;;;;;;;;;5026784;28;20037;-75
2023/11/20 05:50:10;;;;;;;3.53;0.80;;;;;;;;;;5025672;28;20026;-75
2023/11/20 05:52:37;;;;;;;6.75;1.52;;;;;;;;;;5031280;28;20025;-75
2023/11/20 05:55:03;;;;;;;5.18;0.90;;;;;;;;;;5031766;28;20379;-78
2023/11/20 05:57:29;;;;;;;2.72;0.60;;;;;;;;;;5029560;28;20084;-75
2023/11/20 05:59:55;;;;;;;4.35;1.02;;;;;;;;;;5028938;28;20083;-76
2023/11/20 06:02:20;;;;;;;7.63;1.83;;;;;;;;;;5022999;28;20030;-75
2023/11/20 06:04:45;;;;;;;3.42;0.90;;;;;;;;;;5027506;28;20358;-76
2023/11/20 06:07:11;;;;;;;5.28;0.80;;;;;;;;;;5030525;28;20032;-76
2023/11/20 06:09:36;;;;;;;4.93;0.60;;;;;;;;;;5028391;28;20045;-76
2023/11/20 06:12:02;;;;;;;6.45;0.90;;;;;;;;;;5034276;28;20034;-76
2023/11/20 06:14:27;;;;;;;4.30;0.75;;;;;;;;;;5037092;28;20033;-76
2023/11/20 06:16:52;;;;;;;4.50;0.77;;;;;;;;;;5023656;28;20109;-76
2023/11/20 06:19:18;;;;;;;6.97;0.90;;;;;;;;;;5028376;28;20478;-76
2023/11/20 06:21:47;;;;;;;4.68;0.60;;;;;;;;;;5030631;28;20533;-76
2023/11/20 06:24:14;;;;;;;4.75;0.70;;;;;;;;;;5031544;28;20026;-76
2023/11/20 06:26:40;;;;;;;4.13;0.90;;;;;;;;;;5026335;28;20451;-76
2023/11/20 06:29:05;;;;;;;2.78;0.50;;;;;;;;;;5024469;28;20053;-76
2023/11/20 06:31:30;;;;;;;3.92;0.60;;;;;;;;;;5022521;28;20124;-76
2023/11/20 06:33:55;;;;;;;6.78;0.82;;;;;;;;;;5031200;28;20025;-76
2023/11/20 06:36:21;;;;;;;3.95;0.73;;;;;;;;;;5028403;28;20033;-76
2023/11/20 06:38:46;;;;;;;5.00;0.95;;;;;;;;;;5030311;28;20041;-76
2023/11/20 06:41:15;;;;;;;3.55;0.77;;;;;;;;;;5027237;28;20030;-76
2023/11/20 06:43:40;;;;;;;4.82;0.70;;;;;;;;;;5026092;28;20394;-76
2023/11/20 06:46:06;;;;;;;2.25;0.68;;;;;;;;;;5029006;28;20025;-76
2023/11/20 06:48:32;;;;;;;5.40;1.20;;;;;;;;;;5030620;28;20087;-76
2023/11/20 06:50:57;;;;;;;3.83;0.75;;;;;;;;;;5029387;28;20047;-76
2023/11/20 06:53:24;;;;;;;3.92;0.98;;;;;;;;;;5025758;28;20029;-76
2023/11/20 06:55:49;;;;;;;3.30;0.68;;;;;;;;;;5028891;28;20547;-76
2023/11/20 06:58:14;;;;;;;5.20;0.68;;;;;;;;;;5024344;28;20038;-76
2023/11/20 07:00:39;;;;;;;1.60;0.32;;;;;;;;;;5023204;28;20030;-76
2023/11/20 07:03:05;;;;;;;2.03;0.45;;;;;;;;;;5027606;28;20034;-76
2023/11/20 07:05:30;;;;;;;1.88;0.35;;;;;;;;;;5037986;28;20026;-76
2023/11/20 07:07:56;;;;;;;3.70;0.52;;;;;;;;;;5025307;28;20030;-76
2023/11/20 07:10:23;;;;;;;4.00;0.70;;;;;;;;;;5017654;28;20037;-76
2023/11/20 07:12:53;;;;;;;3.65;0.70;;;;;;;;;;5029854;28;20033;-76
2023/11/20 07:15:18;;;;;;;2.92;0.70;;;;;;;;;;5028830;28;20040;-76
2023/11/20 07:17:44;;;;;;;2.22;0.40;;;;;;;;;;5029490;28;20051;-76
2023/11/20 07:20:09;;;;;;;2.80;0.40;;;;;;;;;;5026834;28;20462;-76
2023/11/20 07:22:35;;;;;;;2.38;0.52;;;;;;;;;;5024518;28;20541;-76
2023/11/20 07:25:00;;;;;;;1.80;0.52;;;;;;;;;;5026905;28;20025;-76
2023/11/20 07:27:25;;;;;;;3.08;0.50;;;;;;;;;;5028438;28;20048;-76
2023/11/20 07:29:51;;;;;;;2.92;0.60;;;;;;;;;;5029889;28;20120;-76
2023/11/20 07:32:16;;;;;;;3.95;0.63;;;;;;;;;;5027243;28;20044;-76
2023/11/20 07:34:41;;;;;;;2.05;0.30;;;;;;;;;;5029461;28;20474;-76
2023/11/20 07:37:07;;;;;;;1.83;0.30;;;;;;;;;;5024223;28;20108;-75
2023/11/20 07:39:32;;;;;;;3.80;0.63;;;;;;;;;;5025990;28;20474;-76
2023/11/20 07:41:59;;;;;;;3.47;0.30;;;;;;;;;;5023474;28;20048;-76
2023/11/20 07:44:24;;;;;;;3.10;0.57;;;;;;;;;;5029767;28;20108;-76
2023/11/20 07:46:50;;;;;;;1.63;0.38;;;;;;;;;;5027874;28;20112;-76
2023/11/20 07:49:15;;;;;;;3.95;0.30;;;;;;;;;;5024943;28;20037;-76
2023/11/20 07:51:40;;;;;;;1.50;0.40;;;;;;;;;;5025142;28;20037;-76
2023/11/20 07:54:07;;;;;;;1.08;0.35;;;;;;;;;;5029976;28;20040;-76
2023/11/20 07:56:33;;;;;;;1.95;0.52;;;;;;;;;;5030070;28;20666;-76
2023/11/20 07:58:58;;;;;;;2.83;0.50;;;;;;;;;;5029043;28;20029;-76
2023/11/20 08:01:25;;;;;;;2.75;0.70;;;;;;;;;;5027638;28;20030;-76
2023/11/20 08:03:50;;;;;;;3.88;0.80;;;;;;;;;;5026117;28;20034;-76
2023/11/20 08:06:16;;;;;;;1.85;0.40;;;;;;;;;;5024498;28;20033;-76
2023/11/20 08:08:41;;;;;;;2.70;0.68;;;;;;;;;;5023269;28;20022;-76
2023/11/20 08:11:06;;;;;;;2.60;0.40;;;;;;;;;;5030576;28;20033;-76
2023/11/20 08:13:31;;;;;;;3.30;0.55;;;;;;;;;;5027223;28;20080;-75
2023/11/20 08:15:57;;;;;;;4.13;0.73;;;;;;;;;;5028727;28;20037;-76
2023/11/20 08:18:22;;;;;;;2.67;0.60;;;;;;;;;;5023028;28;20034;-76
2023/11/20 08:20:48;;;;;;;3.40;0.70;;;;;;;;;;5027046;28;20041;-76
2023/11/20 08:23:13;;;;;;;2.25;0.70;;;;;;;;;;5029499;28;20037;-76
2023/11/20 08:25:39;;;;;;;2.60;0.57;;;;;;;;;;5041494;28;20025;-76
2023/11/20 08:28:06;;;;;;;4.60;0.60;;;;;;;;;;5027494;28;20064;-76
2023/11/20 08:30:34;;;;;;;3.17;0.50;;;;;;;;;;5023870;28;20095;-76
2023/11/20 08:32:59;;;;;;;4.07;0.70;;;;;;;;;;5022526;28;20040;-76
2023/11/20 08:35:24;;;;;;;6.03;1.10;;;;;;;;;;5022717;28;20034;-76
2023/11/20 08:37:49;;;;;;;2.22;0.65;;;;;;;;;;5030079;28;20030;-76
2023/11/20 08:40:14;;;;;;;2.17;0.55;;;;;;;;;;5042024;28;20044;-76
2023/11/20 08:42:40;;;;;;;2.38;0.40;;;;;;;;;;5022802;28;20026;-76
2023/11/20 08:45:07;;;;;;;1.17;0.35;;;;;;;;;;5026044;28;20120;-76
2023/11/20 08:47:34;;;;;;;3.63;0.75;;;;;;;;;;5027782;28;20030;-76
2023/11/20 08:50:00;;;;;;;2.40;0.40;;;;;;;;;;5023242;28;20045;-76
2023/11/20 08:52:25;;;;;;;4.57;0.70;;;;;;;;;;5028846;28;20033;-76
2023/11/20 08:54:51;;;;;;;3.28;0.40;;;;;;;;;;5033144;28;20037;-76
2023/11/20 08:57:17;;;;;;;1.90;0.40;;;;;;;;;;5029014;28;20033;-76
2023/11/20 08:59:42;;;;;;;4.25;0.90;;;;;;;;;;5029090;28;20371;-76
2023/11/20 09:02:08;;;;;;;2.55;0.60;;;;;;;;;;5026047;28;20034;-76
2023/11/20 09:04:33;;;;;;;2.85;0.50;;;;;;;;;;5026376;28;20105;-76
2023/11/20 09:06:58;;;;;;;2.55;0.35;;;;;;;;;;5032607;28;20524;-76
2023/11/20 09:09:25;;;;;;;4.25;0.80;;;;;;;;;;5028953;28;20021;-76
2023/11/20 09:11:50;;;;;;;2.20;0.40;;;;;;;;;;5033229;28;20494;-77
2023/11/20 09:14:16;;;;;;;4.32;0.60;;;;;;;;;;5029484;28;20048;-77
2023/11/20 09:16:50;;;;;;;2.58;0.40;;;;;;;;;;5031195;28;20037;-77
2023/11/20 09:19:15;;;;;;;2.17;0.60;;;;;;;;;;5026767;28;20057;-77
2023/11/20 09:21:41;;;;;;;4.38;0.57;;;;;;;;;;5032444;28;20453;-77
2023/11/20 09:24:06;;;;;;;4.00;0.65;;;;;;;;;;5040256;28;20402;-77
2023/11/20 09:26:31;;;;;;;3.78;0.68;;;;;;;;;;5032078;28;20054;-77
2023/11/20 09:28:56;;;;;;;2.38;0.57;;;;;;;;;;5025816;28;20433;-77
2023/11/20 09:31:22;;;;;;;3.75;0.70;;;;;;;;;;5030172;28;20022;-77
2023/11/20 09:33:48;;;;;;;5.30;1.23;;;;;;;;;;5030146;28;20037;-77
2023/11/20 09:36:14;;;;;;;5.03;0.68;;;;;;;;;;5031090;28;20485;-77
2023/11/20 09:39:24;;;;;;;3.08;0.57;;;;;;;;;;5030332;28;20117;-77
2023/11/20 09:41:29;;;;;;;3.85;0.60;;;;;;;;;;5036159;28;20038;-77
2023/11/20 09:43:55;;;;;;;3.35;0.70;;;;;;;;;;5032451;28;20037;-77
2023/11/20 09:46:20;;;;;;;2.20;0.40;;;;;;;;;;5028487;28;20393;-77
2023/11/20 09:48:47;;;;;;;3.15;0.55;;;;;;;;;;5032787;28;20036;-77
2023/11/20 09:51:13;;;;;;;2.58;0.65;;;;;;;;;;5031619;28;20107;-77
2023/11/20 09:53:39;;;;;;;4.32;0.80;;;;;;;;;;5029337;28;21462;-77
2023/11/20 09:56:04;;;;;;;5.32;0.90;;;;;;;;;;5031401;28;20033;-77
2023/11/20 09:58:30;;;;;;;4.30;0.85;;;;;;;;;;5032049;28;20037;-77
2023/11/20 10:01:01;;;;;;;4.93;0.70;;;;;;;;;;5025858;28;20026;-77
2023/11/20 10:03:27;;;;;;;4.47;0.70;;;;;;;;;;5031328;28;20556;-77
2023/11/20 10:05:52;;;;;;;2.85;0.68;;;;;;;;;;5031703;28;20033;-77
2023/11/20 10:08:18;;;;;;;7.85;0.88;;;;;;;;;;5029130;28;20043;-78
2023/11/20 10:10:47;;;;;;;3.67;1.20;;;;;;;;;;5033085;28;20076;-77
2023/11/20 10:13:13;;;;;;;3.47;0.98;;;;;;;;;;5023866;28;20029;-77
2023/11/20 10:15:38;;;;;;;2.55;0.55;;;;;;;;;;5029239;28;20399;-77
2023/11/20 10:18:04;;;;;;;4.95;0.95;;;;;;;;;;5032128;28;20064;-77
2023/11/20 10:20:44;;;;;;;3.80;0.73;;;;;;;;;;5028006;28;20030;-77
2023/11/20 10:23:10;;;;;;;3.00;0.75;;;;;;;;;;5027717;28;20032;-77
2023/11/20 10:25:35;;;;;;;3.60;0.65;;;;;;;;;;5026405;28;20091;-77
2023/11/20 10:28:00;;;;;;;3.15;1.23;;;;;;;;;;5027795;28;20052;-77
2023/11/20 10:30:26;;;;;;;2.00;0.70;;;;;;;;;;5031201;28;20080;-77
2023/11/20 10:32:51;;;;;;;2.90;0.80;;;;;;;;;;5031460;28;20099;-77
2023/11/20 10:35:17;;;;;;;3.15;0.95;;;;;;;;;;5028285;28;20987;-77
2023/11/20 10:37:50;;;;;;;3.72;0.90;;;;;;;;;;5030312;28;20025;-77
2023/11/20 10:40:17;;;;;;;4.28;0.90;;;;;;;;;;5028417;28;20117;-77
2023/11/20 10:42:43;;;;;;;5.07;1.00;;;;;;;;;;5028180;28;20033;-77
2023/11/20 10:45:08;;;;;;;4.05;1.40;;;;;;;;;;5032080;28;20029;-77
2023/11/20 10:47:34;;;;;;;4.25;0.80;;;;;;;;;;5029932;28;20037;-77
2023/11/20 10:49:59;;;;;;;3.58;0.80;;;;;;;;;;5027010;28;20071;-77
2023/11/20 10:52:26;;;;;;;4.05;0.77;;;;;;;;;;5023788;28;20117;-77
2023/11/20 10:54:51;;;;;;;3.65;1.20;;;;;;;;;;5041802;28;20040;-77
2023/11/20 10:57:18;;;;;;;4.13;0.80;;;;;;;;;;5028395;28;20037;-77
2023/11/20 10:59:44;;;;;;;5.10;1.00;;;;;;;;;;5030330;28;20029;-76
2023/11/20 11:02:13;;;;;;;5.18;0.77;;;;;;;;;;5028320;28;20575;-77
2023/11/20 11:04:39;;;;;;;5.03;1.20;;;;;;;;;;5027618;28;20029;-76
2023/11/20 11:07:05;;;;;;;2.65;0.70;;;;;;;;;;5027687;28;20037;-77
2023/11/20 11:09:30;;;;;;;3.30;0.70;;;;;;;;;;5027712;28;20080;-77
2023/11/20 11:11:57;;;;;;;6.85;1.00;;;;;;;;;;5030682;28;20025;-75
2023/11/20 11:14:22;;;;;;;4.45;0.93;;;;;;;;;;5022203;28;20435;-76
2023/11/20 11:16:52;;;;;;;11.95;1.52;;;;;;;;;;5027535;28;20036;-77
2023/11/20 11:19:19;;;;;;;4.75;0.88;;;;;;;;;;5026287;28;20041;-76
2023/11/20 11:21:59;;;;;;;4.38;0.68;;;;;;;;;;5024620;28;20045;-77
2023/11/20 11:24:27;;;;;;;3.88;0.75;;;;;;;;;;5025762;28;20028;-76
2023/11/20 11:27:03;;;;;;;6.07;1.10;;;;;;;;;;5029500;28;20075;-76
2023/11/20 11:29:38;;;;;;;3.20;1.05;;;;;;;;;;5045593;28;20032;-76
2023/11/20 11:32:04;;;;;;;2.88;0.98;;;;;;;;;;5028778;28;20037;-76
2023/11/20 11:34:38;;;;;;;3.17;1.17;;;;;;;;;;5029878;28;20083;-77
2023/11/20 11:37:23;;;;;;;3.47;0.73;;;;;;;;;;5028610;28;20030;-77
2023/11/20 11:40:09;;;;;;;2.42;1.08;;;;;;;;;;5026506;28;20033;-76
2023/11/20 11:42:41;;;;;;;3.75;1.27;;;;;;;;;;5028958;28;20041;-76
2023/11/20 11:45:12;;;;;;;4.38;1.23;;;;;;;;;;5029524;28;20021;-76
2023/11/20 11:47:40;;;;;;;2.75;0.70;;;;;;;;;;5024331;28;20030;-76
2023/11/20 11:50:06;;;;;;;3.67;1.00;;;;;;;;;;5021966;28;20053;-77
2023/11/20 11:52:31;;;;;;;3.80;0.98;;;;;;;;;;5024661;28;20033;-76
2023/11/20 11:55:12;;;;;;;7.13;1.80;;;;;;;;;;5029523;28;20045;-76
2023/11/20 11:57:38;;;;;;;3.60;0.77;;;;;;;;;;5022700;28;20117;-76
2023/11/20 12:00:13;;;;;;;3.03;0.75;;;;;;;;;;5022221;28;20533;-76
2023/11/20 12:02:54;;;;;;;2.67;0.70;;;;;;;;;;5028336;28;20026;-76
2023/11/20 12:05:20;;;;;;;3.08;0.77;;;;;;;;;;5026719;28;20405;-77
2023/11/20 12:07:52;;;;;;;2.00;0.60;;;;;;;;;;5029529;28;20112;-77
2023/11/20 12:10:38;;;;;;;2.42;0.70;;;;;;;;;;5025509;28;20041;-77
2023/11/20 12:13:04;;;;;;;3.28;0.50;;;;;;;;;;5027664;28;20029;-76
2023/11/20 12:15:31;;;;;;;1.83;0.52;;;;;;;;;;5025552;28;20029;-76
2023/11/20 12:18:05;;;;;;;5.78;0.90;;;;;;;;;;5026033;28;20401;-77
2023/11/20 12:20:33;;;;;;;2.00;0.55;;;;;;;;;;5017862;28;20025;-77
2023/11/20 12:23:06;;;;;;;2.10;0.52;;;;;;;;;;5029570;28;20379;-77
2023/11/20 12:25:33;;;;;;;2.42;0.60;;;;;;;;;;5026885;28;20060;-76
2023/11/20 12:27:58;;;;;;;3.05;1.00;;;;;;;;;;5027886;28;20061;-75
2023/11/20 12:30:23;;;;;;;2.83;0.70;;;;;;;;;;5029312;28;20080;-76
2023/11/20 12:32:49;;;;;;;4.57;0.60;;;;;;;;;;5029381;28;20034;-76
2023/11/20 12:35:15;;;;;;;2.45;0.50;;;;;;;;;;5030309;28;20029;-74
2023/11/20 12:37:44;;;;;;;3.13;0.60;;;;;;;;;;5031702;28;20375;-75
2023/11/20 12:40:30;;;;;;;3.38;0.93;;;;;;;;;;5029824;28;20052;-77
2023/11/20 12:42:56;;;;;;;4.13;0.80;;;;;;;;;;5039705;28;20039;-75
2023/11/20 12:45:22;;;;;;;5.07;1.30;;;;;;;;;;5029177;28;20104;-75
2023/11/20 12:47:47;;;;;;;4.78;1.20;;;;;;;;;;5028476;28;20042;-75
2023/11/20 12:50:15;;;;;;;3.92;0.90;;;;;;;;;;5025672;28;20041;-75
2023/11/20 12:52:41;;;;;;;4.93;0.70;;;;;;;;;;5045607;28;20100;-75
2023/11/20 12:55:07;;;;;;;4.22;1.05;;;;;;;;;;5029834;28;20482;-75
2023/11/20 12:57:33;;;;;;;4.85;1.00;;;;;;;;;;5026276;28;20454;-75
2023/11/20 12:59:59;;;;;;;3.58;1.20;;;;;;;;;;5028421;28;20034;-75
2023/11/20 13:02:27;;;;;;;5.15;1.20;;;;;;;;;;5025254;28;20033;-75
2023/11/20 13:04:52;;;;;;;3.05;1.00;;;;;;;;;;5028060;28;20033;-75
2023/11/20 13:07:20;;;;;;;3.67;1.00;;;;;;;;;;5031271;28;20407;-75
2023/11/20 13:09:45;;;;;;;4.00;1.00;;;;;;;;;;5028770;28;21195;-75
2023/11/20 13:12:12;;;;;;;2.55;0.80;;;;;;;;;;5026381;28;20057;-75
2023/11/20 13:14:55;;;;;;;5.63;0.77;;;;;;;;;;5031525;28;20042;-75
2023/11/20 13:17:21;;;;;;;3.67;0.82;;;;;;;;;;5029853;28;20075;-75
2023/11/20 13:19:46;;;;;;;5.93;0.98;;;;;;;;;;5031028;28;20053;-75
2023/11/20 13:22:12;;;;;;;1.55;0.50;;;;;;;;;;5029278;28;20018;-75
2023/11/20 13:24:47;;;;;;;2.15;0.70;;;;;;;;;;5027087;28;20512;-75
2023/11/20 13:27:12;;;;;;;4.10;0.80;;;;;;;;;;5029768;28;20029;-75
2023/11/20 13:29:37;;;;;;;3.53;0.68;;;;;;;;;;5026459;28;20609;-75
2023/11/20 13:32:15;;;;;;;3.90;0.85;;;;;;;;;;5025547;28;20497;-75
2023/11/20 13:34:40;;;;;;;2.17;0.70;;;;;;;;;;5029321;28;20112;-74
2023/11/20 13:37:05;;;;;;;2.40;0.82;;;;;;;;;;5028316;28;20164;-75
2023/11/20 13:39:31;;;;;;;3.28;0.60;;;;;;;;;;5024927;28;20026;-75
2023/11/20 13:41:57;;;;;;;3.17;0.60;;;;;;;;;;5026887;28;20034;-75
2023/11/20 13:44:24;;;;;;;5.05;0.52;;;;;;;;;;5030876;28;20038;-75
2023/11/20 13:46:49;;;;;;;3.28;0.80;;;;;;;;;;5030082;28;20079;-75
2023/11/20 13:49:15;;;;;;;3.42;0.80;;;;;;;;;;5029092;28;20517;-75
2023/11/20 13:51:40;;;;;;;2.97;0.80;;;;;;;;;;5027034;28;20049;-75
2023/11/20 13:54:05;;;;;;;2.10;0.70;;;;;;;;;;5027962;28;20033;-75
2023/11/20 13:56:31;;;;;;;4.30;1.35;;;;;;;;;;5026544;28;20072;-75
2023/11/20 13:58:56;;;;;;;4.32;1.50;;;;;;;;;;5032079;28;20026;-74
2023/11/20 14:01:21;;;;;;;2.33;0.90;;;;;;;;;;5030709;28;20379;-75
2023/11/20 14:03:46;;;;;;;2.63;0.90;;;;;;;;;;5028608;28;20033;-75
2023/11/20 14:06:12;;;;;;;7.00;1.00;;;;;;;;;;5024910;28;20397;-74
2023/11/20 14:08:37;;;;;;;1.35;0.60;;;;;;;;;;5029407;28;20057;-75
2023/11/20 14:11:03;;;;;;;3.00;0.90;;;;;;;;;;5024114;28;20086;-75
2023/11/20 14:13:28;;;;;;;2.63;0.50;;;;;;;;;;5027692;28;20083;-74
2023/11/20 14:15:55;;;;;;;3.42;0.75;;;;;;;;;;5028855;28;20044;-75
2023/11/20 14:18:21;;;;;;;3.30;0.82;;;;;;;;;;5030373;28;20043;-75
2023/11/20 14:20:46;;;;;;;2.67;0.80;;;;;;;;;;5024557;28;20022;-74
2023/11/20 14:23:11;;;;;;;3.08;0.82;;;;;;;;;;5025362;28;20432;-75
2023/11/20 14:25:37;;;;;;;4.80;1.05;;;;;;;;;;5026564;28;20033;-75
2023/11/20 14:28:03;;;;;;;4.13;1.17;;;;;;;;;;5030809;28;20040;-75
2023/11/20 14:30:29;;;;;;;2.47;0.98;;;;;;;;;;5028853;28;20045;-74
2023/11/20 14:32:55;;;;;;;5.78;1.33;;;;;;;;;;5031242;28;20025;-75
2023/11/20 14:35:21;;;;;;;4.30;1.00;;;;;;;;;;5026769;28;20489;-75